sensor_id;sensor_type;location;lat;lon;timestamp;P1;durP1;ratioP1;P2;durP2;ratioP2
47365;SDS011;33105;47.964;7.982;2023-08-30T00:01:40;7.18;;;5.95;;
47365;SDS011;33105;47.964;7.982;2023-08-30T00:04:43;6.15;;;4.63;;
47365;SDS011;33105;47.964;7.982;2023-08-30T00:07:51;5.57;;;4.70;;
47365;SDS011;33105;47.964;7.982;2023-08-30T00:10:54;5.68;;;5.10;;
47365;SDS011;33105;47.964;7.982;2023-08-30T00:14:05;9.50;;;5.40;;
47365;SDS011;33105;47.964;7.982;2023-08-30T00:17:19;5.78;;;4.93;;
47365;SDS011;33105;47.964;7.982;2023-08-30T00:20:33;7.18;;;5.28;;
47365;SDS011;33105;47.964;7.982;2023-08-30T00:23:38;6.00;;;5.40;;
47365;SDS011;33105;47.964;7.982;2023-08-30T00:26:47;5.72;;;4.88;;
47365;SDS011;33105;47.964;7.982;2023-08-30T00:29:59;5.15;;;4.65;;
47365;SDS011;33105;47.964;7.982;2023-08-30T00:33:05;7.43;;;5.10;;
47365;SDS011;33105;47.964;7.982;2023-08-30T00:36:15;5.93;;;5.05;;
47365;SDS011;33105;47.964;7.982;2023-08-30T00:39:23;5.95;;;4.63;;
47365;SDS011;33105;47.964;7.982;2023-08-30T00:42:33;5.30;;;4.80;;
47365;SDS011;33105;47.964;7.982;2023-08-30T00:45:42;6.82;;;4.68;;
47365;SDS011;33105;47.964;7.982;2023-08-30T00:48:44;11.52;;;4.85;;
47365;SDS011;33105;47.964;7.982;2023-08-30T00:51:52;7.43;;;4.50;;
47365;SDS011;33105;47.964;7.982;2023-08-30T00:55:09;12.05;;;5.10;;
47365;SDS011;33105;47.964;7.982;2023-08-30T00:58:22;6.82;;;4.57;;
47365;SDS011;33105;47.964;7.982;2023-08-30T01:01:30;5.18;;;4.72;;
47365;SDS011;33105;47.964;7.982;2023-08-30T01:04:38;5.28;;;4.43;;
47365;SDS011;33105;47.964;7.982;2023-08-30T01:07:47;7.97;;;4.18;;
47365;SDS011;33105;47.964;7.982;2023-08-30T01:14:44;5.57;;;4.60;;
47365;SDS011;33105;47.964;7.982;2023-08-30T01:17:56;4.10;;;3.70;;
47365;SDS011;33105;47.964;7.982;2023-08-30T01:21:04;4.30;;;3.90;;
47365;SDS011;33105;47.964;7.982;2023-08-30T01:24:16;4.32;;;3.92;;
47365;SDS011;33105;47.964;7.982;2023-08-30T01:27:30;8.13;;;4.18;;
47365;SDS011;33105;47.964;7.982;2023-08-30T01:30:40;5.55;;;3.97;;
47365;SDS011;33105;47.964;7.982;2023-08-30T01:36:52;16.83;;;4.93;;
47365;SDS011;33105;47.964;7.982;2023-08-30T01:39:55;4.95;;;3.92;;
47365;SDS011;33105;47.964;7.982;2023-08-30T01:43:01;5.47;;;4.00;;
47365;SDS011;33105;47.964;7.982;2023-08-30T01:46:11;9.43;;;3.65;;
47365;SDS011;33105;47.964;7.982;2023-08-30T01:49:15;5.93;;;3.95;;
47365;SDS011;33105;47.964;7.982;2023-08-30T01:52:26;6.18;;;4.18;;
47365;SDS011;33105;47.964;7.982;2023-08-30T01:55:29;6.07;;;4.30;;
47365;SDS011;33105;47.964;7.982;2023-08-30T01:58:34;5.93;;;4.00;;
47365;SDS011;33105;47.964;7.982;2023-08-30T02:01:37;4.65;;;4.03;;
47365;SDS011;33105;47.964;7.982;2023-08-30T02:04:42;8.27;;;4.30;;
47365;SDS011;33105;47.964;7.982;2023-08-30T02:07:57;4.28;;;3.88;;
47365;SDS011;33105;47.964;7.982;2023-08-30T02:11:14;4.47;;;3.95;;
47365;SDS011;33105;47.964;7.982;2023-08-30T02:14:21;6.88;;;3.90;;
47365;SDS011;33105;47.964;7.982;2023-08-30T02:17:48;5.57;;;4.32;;
47365;SDS011;33105;47.964;7.982;2023-08-30T02:21:13;5.70;;;4.40;;
47365;SDS011;33105;47.964;7.982;2023-08-30T02:24:28;8.13;;;4.00;;
47365;SDS011;33105;47.964;7.982;2023-08-30T02:27:33;4.70;;;4.15;;
47365;SDS011;33105;47.964;7.982;2023-08-30T02:30:39;4.82;;;4.13;;
47365;SDS011;33105;47.964;7.982;2023-08-30T02:33:48;5.87;;;3.63;;
47365;SDS011;33105;47.964;7.982;2023-08-30T02:36:54;4.50;;;4.10;;
47365;SDS011;33105;47.964;7.982;2023-08-30T02:40:17;6.63;;;4.53;;
47365;SDS011;33105;47.964;7.982;2023-08-30T02:43:19;6.20;;;4.18;;
47365;SDS011;33105;47.964;7.982;2023-08-30T02:46:21;6.68;;;4.00;;
47365;SDS011;33105;47.964;7.982;2023-08-30T02:49:23;4.85;;;4.05;;
47365;SDS011;33105;47.964;7.982;2023-08-30T02:52:25;6.15;;;4.10;;
47365;SDS011;33105;47.964;7.982;2023-08-30T02:55:28;9.73;;;3.78;;
47365;SDS011;33105;47.964;7.982;2023-08-30T02:58:30;4.85;;;3.97;;
47365;SDS011;33105;47.964;7.982;2023-08-30T03:01:34;5.22;;;3.92;;
47365;SDS011;33105;47.964;7.982;2023-08-30T03:04:37;5.45;;;3.80;;
47365;SDS011;33105;47.964;7.982;2023-08-30T03:07:40;4.97;;;4.00;;
47365;SDS011;33105;47.964;7.982;2023-08-30T03:10:42;6.28;;;4.03;;
47365;SDS011;33105;47.964;7.982;2023-08-30T03:13:44;4.57;;;4.10;;
47365;SDS011;33105;47.964;7.982;2023-08-30T03:16:47;4.47;;;3.95;;
47365;SDS011;33105;47.964;7.982;2023-08-30T03:19:50;4.15;;;3.35;;
47365;SDS011;33105;47.964;7.982;2023-08-30T03:22:58;5.38;;;3.58;;
47365;SDS011;33105;47.964;7.982;2023-08-30T03:25:59;3.78;;;3.42;;
47365;SDS011;33105;47.964;7.982;2023-08-30T03:29:01;3.80;;;3.50;;
47365;SDS011;33105;47.964;7.982;2023-08-30T03:32:03;4.22;;;3.83;;
47365;SDS011;33105;47.964;7.982;2023-08-30T03:35:07;4.53;;;3.83;;
47365;SDS011;33105;47.964;7.982;2023-08-30T03:38:10;4.13;;;3.72;;
47365;SDS011;33105;47.964;7.982;2023-08-30T03:41:11;3.60;;;3.30;;
47365;SDS011;33105;47.964;7.982;2023-08-30T03:44:14;4.95;;;3.55;;
47365;SDS011;33105;47.964;7.982;2023-08-30T03:47:16;5.35;;;3.05;;
47365;SDS011;33105;47.964;7.982;2023-08-30T03:50:19;8.93;;;4.60;;
47365;SDS011;33105;47.964;7.982;2023-08-30T03:53:21;5.03;;;3.38;;
47365;SDS011;33105;47.964;7.982;2023-08-30T03:56:23;3.60;;;3.30;;
47365;SDS011;33105;47.964;7.982;2023-08-30T03:59:24;4.25;;;3.08;;
47365;SDS011;33105;47.964;7.982;2023-08-30T04:02:28;3.60;;;3.30;;
47365;SDS011;33105;47.964;7.982;2023-08-30T04:05:33;3.47;;;3.10;;
47365;SDS011;33105;47.964;7.982;2023-08-30T04:08:34;4.97;;;3.42;;
47365;SDS011;33105;47.964;7.982;2023-08-30T04:11:36;6.05;;;3.72;;
47365;SDS011;33105;47.964;7.982;2023-08-30T04:14:37;5.63;;;4.07;;
47365;SDS011;33105;47.964;7.982;2023-08-30T04:17:38;4.53;;;3.53;;
47365;SDS011;33105;47.964;7.982;2023-08-30T04:20:46;4.00;;;3.58;;
47365;SDS011;33105;47.964;7.982;2023-08-30T04:23:48;3.28;;;2.97;;
47365;SDS011;33105;47.964;7.982;2023-08-30T04:26:49;5.40;;;3.55;;
47365;SDS011;33105;47.964;7.982;2023-08-30T04:29:53;3.85;;;3.15;;
47365;SDS011;33105;47.964;7.982;2023-08-30T04:32:55;6.15;;;3.35;;
47365;SDS011;33105;47.964;7.982;2023-08-30T04:35:57;3.15;;;2.78;;
47365;SDS011;33105;47.964;7.982;2023-08-30T04:39:01;4.13;;;3.17;;
47365;SDS011;33105;47.964;7.982;2023-08-30T04:42:03;5.65;;;3.15;;
47365;SDS011;33105;47.964;7.982;2023-08-30T04:45:05;5.88;;;3.35;;
47365;SDS011;33105;47.964;7.982;2023-08-30T04:48:07;4.55;;;3.20;;
47365;SDS011;33105;47.964;7.982;2023-08-30T04:51:10;4.35;;;3.20;;
47365;SDS011;33105;47.964;7.982;2023-08-30T04:54:11;2.70;;;2.50;;
47365;SDS011;33105;47.964;7.982;2023-08-30T04:57:12;3.15;;;2.63;;
47365;SDS011;33105;47.964;7.982;2023-08-30T05:00:16;3.22;;;2.83;;
47365;SDS011;33105;47.964;7.982;2023-08-30T05:03:18;3.17;;;2.58;;
47365;SDS011;33105;47.964;7.982;2023-08-30T05:06:19;4.75;;;3.10;;
47365;SDS011;33105;47.964;7.982;2023-08-30T05:09:20;3.90;;;3.55;;
47365;SDS011;33105;47.964;7.982;2023-08-30T05:12:25;3.88;;;3.47;;
47365;SDS011;33105;47.964;7.982;2023-08-30T05:15:26;3.45;;;2.83;;
47365;SDS011;33105;47.964;7.982;2023-08-30T05:18:28;2.80;;;2.60;;
47365;SDS011;33105;47.964;7.982;2023-08-30T05:21:29;3.67;;;2.50;;
47365;SDS011;33105;47.964;7.982;2023-08-30T05:24:30;3.22;;;2.65;;
47365;SDS011;33105;47.964;7.982;2023-08-30T05:27:32;5.93;;;2.47;;
47365;SDS011;33105;47.964;7.982;2023-08-30T05:30:33;3.25;;;2.28;;
47365;SDS011;33105;47.964;7.982;2023-08-30T05:33:45;7.65;;;2.33;;
47365;SDS011;33105;47.964;7.982;2023-08-30T05:37:06;2.58;;;2.38;;
47365;SDS011;33105;47.964;7.982;2023-08-30T05:40:26;4.95;;;2.72;;
47365;SDS011;33105;47.964;7.982;2023-08-30T05:43:30;6.43;;;2.45;;
47365;SDS011;33105;47.964;7.982;2023-08-30T05:46:32;3.33;;;2.33;;
47365;SDS011;33105;47.964;7.982;2023-08-30T05:49:33;6.40;;;2.45;;
47365;SDS011;33105;47.964;7.982;2023-08-30T05:52:35;3.05;;;2.78;;
47365;SDS011;33105;47.964;7.982;2023-08-30T05:55:37;6.22;;;2.70;;
47365;SDS011;33105;47.964;7.982;2023-08-30T05:58:38;3.60;;;2.25;;
47365;SDS011;33105;47.964;7.982;2023-08-30T06:01:39;3.08;;;2.50;;
47365;SDS011;33105;47.964;7.982;2023-08-30T06:04:41;5.05;;;2.83;;
47365;SDS011;33105;47.964;7.982;2023-08-30T06:07:42;2.88;;;2.67;;
47365;SDS011;33105;47.964;7.982;2023-08-30T06:10:43;2.47;;;2.28;;
47365;SDS011;33105;47.964;7.982;2023-08-30T06:13:45;2.53;;;2.33;;
47365;SDS011;33105;47.964;7.982;2023-08-30T06:16:47;2.13;;;1.90;;
47365;SDS011;33105;47.964;7.982;2023-08-30T06:19:49;5.78;;;2.35;;
47365;SDS011;33105;47.964;7.982;2023-08-30T06:22:51;2.50;;;2.05;;
47365;SDS011;33105;47.964;7.982;2023-08-30T06:25:54;3.10;;;2.25;;
47365;SDS011;33105;47.964;7.982;2023-08-30T06:28:56;3.78;;;2.45;;
47365;SDS011;33105;47.964;7.982;2023-08-30T06:31:57;3.00;;;2.63;;
47365;SDS011;33105;47.964;7.982;2023-08-30T06:35:00;3.00;;;2.20;;
47365;SDS011;33105;47.964;7.982;2023-08-30T06:38:01;2.35;;;2.15;;
47365;SDS011;33105;47.964;7.982;2023-08-30T06:41:06;7.38;;;2.25;;
47365;SDS011;33105;47.964;7.982;2023-08-30T06:44:08;3.30;;;2.78;;
47365;SDS011;33105;47.964;7.982;2023-08-30T06:47:09;3.42;;;2.63;;
47365;SDS011;33105;47.964;7.982;2023-08-30T06:50:17;2.67;;;2.47;;
47365;SDS011;33105;47.964;7.982;2023-08-30T06:53:43;2.05;;;1.88;;
47365;SDS011;33105;47.964;7.982;2023-08-30T06:56:57;1.60;;;1.50;;
47365;SDS011;33105;47.964;7.982;2023-08-30T07:00:00;6.13;;;2.25;;
47365;SDS011;33105;47.964;7.982;2023-08-30T07:03:08;2.67;;;2.42;;
47365;SDS011;33105;47.964;7.982;2023-08-30T07:06:10;7.03;;;2.80;;
47365;SDS011;33105;47.964;7.982;2023-08-30T07:09:33;5.88;;;2.33;;
47365;SDS011;33105;47.964;7.982;2023-08-30T07:12:59;3.88;;;2.78;;
47365;SDS011;33105;47.964;7.982;2023-08-30T07:16:02;3.53;;;3.22;;
47365;SDS011;33105;47.964;7.982;2023-08-30T07:19:21;2.45;;;2.25;;
47365;SDS011;33105;47.964;7.982;2023-08-30T07:22:47;3.63;;;2.92;;
47365;SDS011;33105;47.964;7.982;2023-08-30T07:25:51;3.72;;;2.80;;
47365;SDS011;33105;47.964;7.982;2023-08-30T07:28:52;2.50;;;2.30;;
47365;SDS011;33105;47.964;7.982;2023-08-30T07:32:33;3.95;;;2.15;;
47365;SDS011;33105;47.964;7.982;2023-08-30T07:35:46;3.13;;;2.28;;
47365;SDS011;33105;47.964;7.982;2023-08-30T07:39:11;2.85;;;2.47;;
47365;SDS011;33105;47.964;7.982;2023-08-30T07:42:13;4.63;;;2.40;;
47365;SDS011;33105;47.964;7.982;2023-08-30T07:45:19;4.40;;;2.65;;
47365;SDS011;33105;47.964;7.982;2023-08-30T07:48:23;4.20;;;2.17;;
47365;SDS011;33105;47.964;7.982;2023-08-30T07:51:49;4.10;;;2.55;;
47365;SDS011;33105;47.964;7.982;2023-08-30T07:55:25;4.18;;;3.08;;
47365;SDS011;33105;47.964;7.982;2023-08-30T07:58:26;2.30;;;2.10;;
47365;SDS011;33105;47.964;7.982;2023-08-30T08:01:57;4.97;;;2.92;;
47365;SDS011;33105;47.964;7.982;2023-08-30T08:05:27;3.40;;;3.10;;
47365;SDS011;33105;47.964;7.982;2023-08-30T08:08:28;4.70;;;3.45;;
47365;SDS011;33105;47.964;7.982;2023-08-30T08:18:45;3.75;;;3.40;;
47365;SDS011;33105;47.964;7.982;2023-08-30T08:22:20;6.60;;;3.90;;
47365;SDS011;33105;47.964;7.982;2023-08-30T08:25:42;4.35;;;3.95;;
47365;SDS011;33105;47.964;7.982;2023-08-30T08:37:17;8.95;;;5.18;;
47365;SDS011;33105;47.964;7.982;2023-08-30T08:41:01;6.80;;;5.20;;
47365;SDS011;33105;47.964;7.982;2023-08-30T08:44:05;7.70;;;5.05;;
47365;SDS011;33105;47.964;7.982;2023-08-30T09:04:49;8.00;;;4.72;;
47365;SDS011;33105;47.964;7.982;2023-08-30T09:16:41;6.20;;;5.10;;
47365;SDS011;33105;47.964;7.982;2023-08-30T09:20:04;5.53;;;5.03;;
47365;SDS011;33105;47.964;7.982;2023-08-30T09:23:28;4.78;;;4.38;;
47365;SDS011;33105;47.964;7.982;2023-08-30T09:27:02;6.28;;;3.53;;
47365;SDS011;33105;47.964;7.982;2023-08-30T09:35:12;4.15;;;3.28;;
47365;SDS011;33105;47.964;7.982;2023-08-30T09:39:52;5.28;;;3.70;;
47365;SDS011;33105;47.964;7.982;2023-08-30T09:42:58;4.82;;;3.55;;
47365;SDS011;33105;47.964;7.982;2023-08-30T09:46:39;4.88;;;3.30;;
47365;SDS011;33105;47.964;7.982;2023-08-30T09:50:40;4.15;;;3.75;;
47365;SDS011;33105;47.964;7.982;2023-08-30T09:54:09;4.40;;;3.47;;
47365;SDS011;33105;47.964;7.982;2023-08-30T09:57:41;5.10;;;3.17;;
47365;SDS011;33105;47.964;7.982;2023-08-30T10:06:44;7.30;;;3.80;;
47365;SDS011;33105;47.964;7.982;2023-08-30T10:10:24;7.43;;;4.75;;
47365;SDS011;33105;47.964;7.982;2023-08-30T11:07:14;4.47;;;4.07;;
47365;SDS011;33105;47.964;7.982;2023-08-30T11:10:35;4.50;;;3.17;;
47365;SDS011;33105;47.964;7.982;2023-08-30T11:13:36;4.30;;;3.88;;
47365;SDS011;33105;47.964;7.982;2023-08-30T11:17:31;4.72;;;3.78;;
47365;SDS011;33105;47.964;7.982;2023-08-30T11:30:23;6.03;;;3.20;;
47365;SDS011;33105;47.964;7.982;2023-08-30T11:34:01;7.95;;;3.05;;
47365;SDS011;33105;47.964;7.982;2023-08-30T11:37:44;5.30;;;3.00;;
47365;SDS011;33105;47.964;7.982;2023-08-30T11:42:06;5.80;;;3.63;;
47365;SDS011;33105;47.964;7.982;2023-08-30T11:45:30;3.35;;;2.95;;
47365;SDS011;33105;47.964;7.982;2023-08-30T11:49:08;5.07;;;2.78;;
47365;SDS011;33105;47.964;7.982;2023-08-30T11:56:08;5.15;;;2.40;;
47365;SDS011;33105;47.964;7.982;2023-08-30T11:59:29;3.78;;;2.45;;
47365;SDS011;33105;47.964;7.982;2023-08-30T12:02:36;7.03;;;2.60;;
47365;SDS011;33105;47.964;7.982;2023-08-30T12:05:49;4.63;;;2.47;;
47365;SDS011;33105;47.964;7.982;2023-08-30T12:09:32;7.57;;;2.72;;
47365;SDS011;33105;47.964;7.982;2023-08-30T12:13:02;4.75;;;2.50;;
47365;SDS011;33105;47.964;7.982;2023-08-30T12:16:04;7.25;;;2.70;;
47365;SDS011;33105;47.964;7.982;2023-08-30T12:19:27;5.25;;;2.30;;
47365;SDS011;33105;47.964;7.982;2023-08-30T12:22:38;3.53;;;2.60;;
47365;SDS011;33105;47.964;7.982;2023-08-30T12:30:07;5.63;;;2.30;;
47365;SDS011;33105;47.964;7.982;2023-08-30T12:33:09;2.65;;;1.98;;
47365;SDS011;33105;47.964;7.982;2023-08-30T12:36:10;4.90;;;2.22;;
47365;SDS011;33105;47.964;7.982;2023-08-30T12:39:12;5.07;;;2.13;;
47365;SDS011;33105;47.964;7.982;2023-08-30T12:46:43;2.63;;;1.92;;
47365;SDS011;33105;47.964;7.982;2023-08-30T12:50:32;1.80;;;1.50;;
47365;SDS011;33105;47.964;7.982;2023-08-30T12:53:40;2.60;;;1.75;;
47365;SDS011;33105;47.964;7.982;2023-08-30T12:57:05;5.85;;;2.30;;
47365;SDS011;33105;47.964;7.982;2023-08-30T13:01:02;2.20;;;1.60;;
47365;SDS011;33105;47.964;7.982;2023-08-30T13:04:32;1.73;;;1.63;;
47365;SDS011;33105;47.964;7.982;2023-08-30T13:13:15;2.38;;;1.58;;
47365;SDS011;33105;47.964;7.982;2023-08-30T15:10:49;5.15;;;1.40;;
47365;SDS011;33105;47.964;7.982;2023-08-30T15:14:35;5.18;;;1.83;;
47365;SDS011;33105;47.964;7.982;2023-08-30T15:18:21;1.63;;;1.25;;
47365;SDS011;33105;47.964;7.982;2023-08-30T15:21:26;4.28;;;1.27;;
47365;SDS011;33105;47.964;7.982;2023-08-30T15:24:46;4.82;;;1.60;;
47365;SDS011;33105;47.964;7.982;2023-08-30T15:28:25;3.22;;;1.50;;
47365;SDS011;33105;47.964;7.982;2023-08-30T15:32:22;4.13;;;1.40;;
47365;SDS011;33105;47.964;7.982;2023-08-30T15:39:15;3.42;;;1.70;;
47365;SDS011;33105;47.964;7.982;2023-08-30T15:43:13;2.88;;;1.60;;
47365;SDS011;33105;47.964;7.982;2023-08-30T15:46:35;2.58;;;1.33;;
47365;SDS011;33105;47.964;7.982;2023-08-30T15:49:42;1.90;;;1.38;;
47365;SDS011;33105;47.964;7.982;2023-08-30T15:53:34;3.90;;;1.42;;
47365;SDS011;33105;47.964;7.982;2023-08-30T15:56:58;4.13;;;1.30;;
47365;SDS011;33105;47.964;7.982;2023-08-30T16:00:09;4.22;;;1.38;;
47365;SDS011;33105;47.964;7.982;2023-08-30T16:03:21;1.98;;;1.65;;
47365;SDS011;33105;47.964;7.982;2023-08-30T16:06:32;6.78;;;2.25;;
47365;SDS011;33105;47.964;7.982;2023-08-30T16:09:33;4.53;;;1.90;;
47365;SDS011;33105;47.964;7.982;2023-08-30T16:13:26;2.25;;;1.75;;
47365;SDS011;33105;47.964;7.982;2023-08-30T16:16:25;2.00;;;1.65;;
47365;SDS011;33105;47.964;7.982;2023-08-30T16:19:30;3.83;;;1.83;;
47365;SDS011;33105;47.964;7.982;2023-08-30T16:22:36;3.45;;;1.58;;
47365;SDS011;33105;47.964;7.982;2023-08-30T16:25:58;2.17;;;1.63;;
47365;SDS011;33105;47.964;7.982;2023-08-30T16:29:35;2.50;;;1.73;;
47365;SDS011;33105;47.964;7.982;2023-08-30T16:36:47;3.03;;;1.70;;
47365;SDS011;33105;47.964;7.982;2023-08-30T16:49:41;1.70;;;1.45;;
47365;SDS011;33105;47.964;7.982;2023-08-30T16:52:54;7.40;;;2.00;;
47365;SDS011;33105;47.964;7.982;2023-08-30T17:00:32;3.33;;;1.52;;
47365;SDS011;33105;47.964;7.982;2023-08-30T17:07:53;2.25;;;1.70;;
47365;SDS011;33105;47.964;7.982;2023-08-30T17:15:25;2.55;;;2.00;;
47365;SDS011;33105;47.964;7.982;2023-08-30T17:18:33;3.03;;;1.60;;
47365;SDS011;33105;47.964;7.982;2023-08-30T17:21:48;3.33;;;1.90;;
47365;SDS011;33105;47.964;7.982;2023-08-30T17:24:52;2.75;;;1.65;;
47365;SDS011;33105;47.964;7.982;2023-08-30T17:28:46;4.95;;;1.80;;
47365;SDS011;33105;47.964;7.982;2023-08-30T17:32:31;9.73;;;1.88;;
47365;SDS011;33105;47.964;7.982;2023-08-30T17:36:02;4.32;;;1.73;;
47365;SDS011;33105;47.964;7.982;2023-08-30T17:43:46;3.35;;;1.58;;
47365;SDS011;33105;47.964;7.982;2023-08-30T17:51:15;2.92;;;1.98;;
47365;SDS011;33105;47.964;7.982;2023-08-30T17:55:22;2.40;;;1.80;;
47365;SDS011;33105;47.964;7.982;2023-08-30T17:59:22;2.58;;;2.05;;
47365;SDS011;33105;47.964;7.982;2023-08-30T18:03:20;6.13;;;2.28;;
47365;SDS011;33105;47.964;7.982;2023-08-30T18:06:52;3.92;;;2.03;;
47365;SDS011;33105;47.964;7.982;2023-08-30T18:10:25;4.05;;;2.38;;
47365;SDS011;33105;47.964;7.982;2023-08-30T18:18:42;3.58;;;2.33;;
47365;SDS011;33105;47.964;7.982;2023-08-30T18:21:53;5.53;;;2.58;;
47365;SDS011;33105;47.964;7.982;2023-08-30T18:29:26;3.83;;;2.40;;
47365;SDS011;33105;47.964;7.982;2023-08-30T18:33:04;3.38;;;2.20;;
47365;SDS011;33105;47.964;7.982;2023-08-30T18:36:06;5.78;;;2.70;;
47365;SDS011;33105;47.964;7.982;2023-08-30T18:43:48;3.60;;;2.50;;
47365;SDS011;33105;47.964;7.982;2023-08-30T18:51:51;3.53;;;2.33;;
47365;SDS011;33105;47.964;7.982;2023-08-30T18:55:26;4.72;;;2.92;;
47365;SDS011;33105;47.964;7.982;2023-08-30T19:02:46;2.25;;;2.05;;
47365;SDS011;33105;47.964;7.982;2023-08-30T19:06:02;4.32;;;2.42;;
47365;SDS011;33105;47.964;7.982;2023-08-30T19:10:01;5.65;;;2.35;;
47365;SDS011;33105;47.964;7.982;2023-08-30T19:12:52;6.10;;;2.50;;
47365;SDS011;33105;47.964;7.982;2023-08-30T19:16:19;3.40;;;2.70;;
47365;SDS011;33105;47.964;7.982;2023-08-30T19:23:52;4.20;;;2.60;;
47365;SDS011;33105;47.964;7.982;2023-08-30T19:27:28;6.32;;;3.00;;
47365;SDS011;33105;47.964;7.982;2023-08-30T19:30:30;5.03;;;2.50;;
47365;SDS011;33105;47.964;7.982;2023-08-30T19:34:22;5.78;;;2.80;;
47365;SDS011;33105;47.964;7.982;2023-08-30T19:37:41;6.40;;;2.53;;
47365;SDS011;33105;47.964;7.982;2023-08-30T19:41:14;6.13;;;3.00;;
47365;SDS011;33105;47.964;7.982;2023-08-30T19:44:41;5.10;;;3.00;;
47365;SDS011;33105;47.964;7.982;2023-08-30T19:48:21;7.68;;;3.15;;
47365;SDS011;33105;47.964;7.982;2023-08-30T19:52:39;5.05;;;3.10;;
47365;SDS011;33105;47.964;7.982;2023-08-30T19:55:59;4.97;;;3.30;;
47365;SDS011;33105;47.964;7.982;2023-08-30T19:59:07;6.00;;;3.83;;
47365;SDS011;33105;47.964;7.982;2023-08-30T20:02:34;5.28;;;3.42;;
47365;SDS011;33105;47.964;7.982;2023-08-30T20:05:54;9.88;;;3.33;;
47365;SDS011;33105;47.964;7.982;2023-08-30T20:10:04;7.30;;;3.38;;
47365;SDS011;33105;47.964;7.982;2023-08-30T20:13:23;8.65;;;2.70;;
47365;SDS011;33105;47.964;7.982;2023-08-30T20:21:29;7.38;;;3.28;;
47365;SDS011;33105;47.964;7.982;2023-08-30T20:25:55;4.90;;;2.83;;
47365;SDS011;33105;47.964;7.982;2023-08-30T20:30:08;5.05;;;2.60;;
47365;SDS011;33105;47.964;7.982;2023-08-30T20:34:00;7.75;;;3.63;;
47365;SDS011;33105;47.964;7.982;2023-08-30T20:38:32;8.02;;;3.25;;
47365;SDS011;33105;47.964;7.982;2023-08-30T20:42:38;8.38;;;3.85;;
47365;SDS011;33105;47.964;7.982;2023-08-30T20:45:56;9.82;;;3.50;;
47365;SDS011;33105;47.964;7.982;2023-08-30T20:58:09;7.38;;;3.47;;
47365;SDS011;33105;47.964;7.982;2023-08-30T21:01:57;4.07;;;3.30;;
47365;SDS011;33105;47.964;7.982;2023-08-30T21:05:40;4.88;;;2.85;;
47365;SDS011;33105;47.964;7.982;2023-08-30T21:14:28;7.93;;;3.80;;
47365;SDS011;33105;47.964;7.982;2023-08-30T21:22:51;5.32;;;3.72;;
47365;SDS011;33105;47.964;7.982;2023-08-30T21:27:00;5.05;;;3.60;;
47365;SDS011;33105;47.964;7.982;2023-08-30T21:31:30;9.05;;;3.20;;
47365;SDS011;33105;47.964;7.982;2023-08-30T21:35:40;5.38;;;3.50;;
47365;SDS011;33105;47.964;7.982;2023-08-30T21:39:30;5.35;;;3.35;;
47365;SDS011;33105;47.964;7.982;2023-08-30T21:49:05;5.97;;;3.70;;
47365;SDS011;33105;47.964;7.982;2023-08-30T21:56:57;4.53;;;3.53;;
